Main page
METAR-TAF:

METAR-TAF

Airports :

Jay Prakash Narayan International Airport

Patna, India

latitude: 25-36N, longitude: 085-06E, elevation: 51 m

Current weather observation

The report was made 35 minutes ago, at 09:30 UTC
Wind 3 kt from the North
Temperature 39°C
Humidity 31%
Pressure 1008 hPa
Visibility: 6000 m

METAR: VEPT 130930Z 01003KT 6000 NSC 39/19 Q1008 NOSIG

Time: 15:35 (10:05 UTC)

Forecast

The report was made 2 hours and 5 minutes ago, at 08:00 UTC
Forecast valid from 13 at 09 UTC to 13 at 18 UTC
Wind 3 kt from the North/Northeast
Visibility: 5000 m
Few clouds at a height of 10000 ft
haze
Becoming
from 13 at 13 UTC to 13 at 15 UTC
Wind 5 kt from the East
Visibility: 3000 m
haze,

TAF: VEPT 130800Z 1309/1318 02003KT 5000 HZ FEW100 BECMG 1313/1315 09005KT 3000 HZ

Weather observations and forecasts of more than 4000 airports (METAR and TAF reports).

The available stations are represented by yellow and red dots on the map.

Hover mouse over dot to see the name of the station.

Then click to see weather observations and forecasts.

To change the map : click on the green buttons with a black cross to zoom in, on the green button with a dash to zoom out, or on the green arrows for adjacent maps.


METAR-TAF: